createdAt,value
2019-02-28T00:01:28.546Z,1.74
2019-02-28T00:03:58.029Z,1.52
2019-02-28T00:06:26.624Z,1.56
2019-02-28T00:08:54.763Z,1.30
2019-02-28T00:11:23.036Z,1.39
2019-02-28T00:13:52.302Z,1.60
2019-02-28T00:16:21.078Z,1.54
2019-02-28T00:18:50.559Z,1.36
2019-02-28T00:21:18.872Z,1.46
2019-02-28T00:23:47.074Z,1.23
2019-02-28T00:26:15.347Z,1.22
2019-02-28T00:28:43.504Z,1.20
2019-02-28T00:31:14.226Z,1.30
2019-02-28T00:33:41.668Z,1.29
2019-02-28T00:36:09.866Z,1.39
2019-02-28T00:38:38.108Z,1.23
2019-02-28T00:41:09.314Z,1.28
2019-02-28T00:43:36.350Z,1.43
2019-02-28T00:46:09.670Z,1.21
2019-02-28T00:48:34.435Z,1.10
2019-02-28T00:51:02.707Z,1.17
2019-02-28T00:53:31.044Z,1.24
2019-02-28T00:55:59.182Z,1.10
2019-02-28T00:58:28.947Z,1.22
2019-02-28T01:00:57.374Z,1.13
2019-02-28T01:03:27.410Z,1.10
2019-02-28T01:05:55.419Z,1.17
2019-02-28T01:08:24.305Z,1.05
2019-02-28T01:10:52.475Z,1.01
2019-02-28T01:13:20.603Z,1.07
2019-02-28T01:15:48.746Z,0.93
2019-02-28T01:18:16.843Z,1.17
2019-02-28T01:20:49.963Z,0.93
2019-02-28T01:23:14.894Z,0.87
2019-02-28T01:25:43.085Z,1.07
2019-02-28T01:28:11.172Z,0.83
2019-02-28T01:30:40.632Z,0.73
2019-02-28T01:33:09.494Z,0.66
2019-02-28T01:35:40.753Z,0.74
2019-02-28T01:38:07.678Z,0.78
2019-02-28T01:40:37.759Z,0.81
2019-02-28T01:43:05.704Z,0.96
2019-02-28T01:45:33.968Z,0.90
2019-02-28T01:48:02.248Z,0.97
2019-02-28T01:50:30.508Z,1.06
2019-02-28T01:52:58.846Z,1.28
2019-02-28T01:55:29.436Z,1.13
2019-02-28T01:57:56.878Z,1.00
2019-02-28T02:00:25.068Z,0.97
2019-02-28T02:02:53.551Z,0.96
2019-02-28T02:05:21.712Z,1.05
2019-02-28T02:07:49.985Z,0.85
2019-02-28T02:10:21.497Z,0.78
2019-02-28T02:12:50.065Z,0.64
2019-02-28T02:15:18.332Z,0.74
2019-02-28T02:17:46.480Z,0.81
2019-02-28T02:20:14.847Z,0.84
2019-02-28T02:22:44.608Z,0.77
2019-02-28T02:25:12.943Z,0.71
2019-02-28T02:27:41.205Z,0.83
2019-02-28T02:30:21.085Z,0.83
2019-02-28T02:32:49.451Z,0.60
2019-02-28T02:35:17.660Z,0.49
2019-02-28T02:37:45.867Z,0.47
2019-02-28T02:40:14.360Z,0.56
2019-02-28T02:42:47.146Z,0.61
2019-02-28T02:45:13.246Z,0.49
2019-02-28T02:47:41.398Z,0.60
2019-02-28T02:50:11.503Z,0.76
2019-02-28T02:52:39.749Z,0.54
2019-02-28T02:55:08.136Z,0.43
2019-02-28T02:57:36.586Z,0.35
2019-02-28T03:00:13.320Z,0.27
2019-02-28T03:02:36.386Z,0.16
2019-02-28T03:05:04.950Z,0.06
2019-02-28T03:07:33.143Z,0.21
2019-02-28T03:10:01.278Z,0.29
2019-02-28T03:12:31.160Z,0.21
2019-02-28T03:14:59.384Z,0.42
2019-02-28T03:17:27.542Z,0.30
2019-02-28T03:19:55.944Z,0.44
2019-02-28T03:22:28.372Z,0.30
2019-02-28T03:24:54.167Z,0.31
2019-02-28T03:27:22.301Z,0.14
2019-02-28T03:29:50.582Z,0.22
2019-02-28T03:32:18.863Z,0.18
2019-02-28T03:34:54.707Z,0.08
2019-02-28T03:37:17.044Z,0.03
2019-02-28T03:39:45.251Z,0.01
2019-02-28T03:42:13.372Z,0.15
2019-02-28T03:44:41.560Z,0.12
2019-02-28T03:47:09.710Z,0.12
2019-02-28T03:49:38.058Z,0.14
2019-02-28T03:52:06.933Z,0.24
2019-02-28T03:54:35.427Z,0.22
2019-02-28T03:57:03.585Z,0.16
2019-02-28T03:59:31.812Z,0.41
2019-02-28T04:02:00.071Z,0.54
2019-02-28T04:04:28.249Z,0.51
2019-02-28T04:06:56.609Z,0.45
2019-02-28T04:09:24.844Z,0.42
2019-02-28T04:11:53.765Z,0.34
2019-02-28T04:14:21.926Z,0.28
2019-02-28T04:16:54.138Z,0.32
2019-02-28T04:19:22.690Z,0.43
2019-02-28T04:21:49.994Z,0.21
2019-02-28T04:24:18.582Z,0.18
2019-02-28T04:26:46.710Z,0.29
2019-02-28T04:29:14.880Z,0.23
2019-02-28T04:31:43.119Z,0.30
2019-02-28T04:34:13.508Z,0.19
2019-02-28T04:36:41.222Z,0.10
2019-02-28T04:39:09.330Z,0.14
2019-02-28T04:41:37.536Z,0.32
2019-02-28T04:44:05.743Z,0.18
2019-02-28T04:46:33.870Z,0.18
2019-02-28T04:49:02.717Z,0.12
2019-02-28T04:51:30.870Z,-0.02
2019-02-28T04:53:59.062Z,0.07
2019-02-28T04:56:27.232Z,0.15
2019-02-28T04:58:56.440Z,0.35
2019-02-28T05:01:25.282Z,0.48
2019-02-28T05:03:53.488Z,0.33
2019-02-28T05:06:21.915Z,0.21
2019-02-28T05:08:50.130Z,0.05
2019-02-28T05:11:18.304Z,0.01
2019-02-28T05:13:48.845Z,-0.05
2019-02-28T05:16:16.496Z,0.06
2019-02-28T05:18:44.865Z,0.13
2019-02-28T05:21:13.067Z,-0.05
2019-02-28T05:23:41.267Z,0.00
2019-02-28T05:26:09.707Z,-0.12
2019-02-28T05:28:41.137Z,-0.19
2019-02-28T05:31:07.966Z,-0.15
2019-02-28T05:33:38.427Z,-0.06
2019-02-28T05:36:06.031Z,-0.16
2019-02-28T05:38:34.194Z,-0.04
2019-02-28T05:41:02.534Z,-0.15
2019-02-28T05:43:32.126Z,-0.19
2019-02-28T05:46:00.643Z,-0.09
2019-02-28T05:48:29.006Z,-0.10
2019-02-28T05:50:57.538Z,-0.15
2019-02-28T05:53:25.774Z,-0.13
2019-02-28T05:55:59.023Z,-0.03
2019-02-28T05:58:24.014Z,0.06
2019-02-28T06:00:52.694Z,0.07
2019-02-28T06:03:21.052Z,0.20
2019-02-28T06:05:49.449Z,0.21
2019-02-28T06:08:17.710Z,0.21
2019-02-28T06:10:46.172Z,0.14
2019-02-28T06:13:15.298Z,0.06
2019-02-28T06:15:44.262Z,-0.03
2019-02-28T06:18:12.450Z,0.05
2019-02-28T06:20:40.631Z,0.06
2019-02-28T06:23:09.368Z,0.08
2019-02-28T06:25:38.422Z,0.03
2019-02-28T06:28:06.823Z,0.05
2019-02-28T06:30:35.011Z,0.00
2019-02-28T06:33:03.138Z,-0.02
2019-02-28T06:35:31.384Z,0.18
2019-02-28T06:37:59.960Z,0.09
2019-02-28T06:40:32.813Z,0.19
2019-02-28T06:42:58.133Z,0.35
2019-02-28T06:45:26.278Z,0.40
2019-02-28T06:48:14.855Z,0.42
2019-02-28T06:50:44.727Z,0.37
2019-02-28T06:53:15.943Z,0.40
2019-02-28T06:56:03.373Z,0.54
2019-02-28T06:58:33.258Z,0.81
2019-02-28T07:01:01.581Z,0.84
2019-02-28T07:03:29.840Z,0.89
2019-02-28T07:06:01.025Z,1.00
2019-02-28T07:08:28.992Z,1.01
2019-02-28T07:10:57.918Z,1.19
2019-02-28T07:13:26.061Z,1.34
2019-02-28T07:15:55.507Z,1.40
2019-02-28T07:18:24.124Z,1.55
2019-02-28T07:20:52.290Z,1.66
2019-02-28T07:23:22.186Z,2.23
2019-02-28T07:25:52.373Z,2.14
2019-02-28T07:28:20.307Z,3.43
2019-02-28T07:30:50.399Z,4.39
2019-02-28T07:33:18.460Z,4.32
2019-02-28T07:35:46.631Z,4.46
2019-02-28T07:38:14.844Z,4.38
2019-02-28T07:40:43.064Z,4.16
2019-02-28T07:43:13.002Z,5.09
2019-02-28T07:45:41.179Z,5.26
2019-02-28T07:48:09.380Z,5.40
2019-02-28T07:50:37.588Z,5.61
2019-02-28T07:53:08.798Z,5.72
2019-02-28T07:55:35.656Z,5.81
2019-02-28T07:58:03.912Z,5.89
2019-02-28T08:00:32.041Z,5.55
2019-02-28T08:03:00.277Z,5.77
2019-02-28T08:05:30.921Z,5.55
2019-02-28T08:07:58.500Z,6.00
2019-02-28T08:10:26.656Z,6.06
2019-02-28T08:12:54.850Z,6.11
2019-02-28T08:15:23.245Z,6.27
2019-02-28T08:17:51.447Z,6.31
2019-02-28T08:20:20.795Z,6.34
2019-02-28T08:22:49.035Z,5.73
2019-02-28T08:25:17.292Z,6.08
2019-02-28T08:27:45.512Z,6.21
2019-02-28T08:30:16.227Z,6.29
2019-02-28T08:32:47.104Z,6.35
2019-02-28T08:35:15.689Z,6.50
2019-02-28T08:37:43.974Z,6.56
2019-02-28T08:40:15.778Z,6.58
2019-02-28T08:42:44.646Z,6.33
2019-02-28T08:45:13.780Z,6.35
2019-02-28T08:47:42.045Z,6.39
2019-02-28T08:50:12.780Z,6.61
2019-02-28T08:52:42.238Z,6.73
2019-02-28T08:55:12.280Z,6.95
2019-02-28T08:57:40.487Z,7.00
2019-02-28T09:00:11.610Z,7.00
2019-02-28T09:02:40.080Z,7.18
2019-02-28T09:05:08.508Z,7.41
2019-02-28T09:07:36.683Z,7.31
2019-02-28T09:10:06.397Z,7.59
2019-02-28T09:12:35.727Z,7.78
2019-02-28T09:15:04.627Z,7.82
2019-02-28T09:17:32.886Z,7.95
2019-02-28T09:20:01.150Z,8.08
2019-02-28T09:22:29.377Z,8.14
2019-02-28T09:24:57.619Z,8.24
2019-02-28T09:27:25.787Z,8.46
2019-02-28T09:29:54.681Z,8.53
2019-02-28T09:32:23.824Z,8.74
2019-02-28T09:34:52.090Z,8.88
2019-02-28T09:37:20.342Z,8.99
2019-02-28T09:39:51.328Z,9.36
2019-02-28T09:42:18.389Z,9.43
2019-02-28T09:44:46.612Z,9.56
2019-02-28T09:47:14.831Z,9.40
2019-02-28T09:49:44.274Z,9.80
2019-02-28T09:52:13.139Z,9.67
2019-02-28T09:54:42.106Z,10.16
2019-02-28T09:57:10.455Z,10.13
2019-02-28T09:59:38.740Z,10.47
2019-02-28T10:02:08.426Z,10.30
2019-02-28T10:04:37.204Z,9.07
2019-02-28T10:07:05.391Z,10.39
2019-02-28T10:09:33.515Z,9.61
2019-02-28T10:12:04.706Z,9.71
2019-02-28T10:14:31.737Z,9.70
2019-02-28T10:16:59.945Z,9.93
2019-02-28T10:19:28.132Z,9.74
2019-02-28T10:21:56.391Z,9.84
2019-02-28T10:24:24.759Z,9.93
2019-02-28T10:26:52.977Z,10.23
2019-02-28T10:29:21.168Z,9.76
2019-02-28T10:31:49.426Z,9.16
2019-02-28T10:34:17.607Z,9.41
2019-02-28T10:36:47.952Z,9.47
2019-02-28T10:39:15.771Z,10.07
2019-02-28T10:41:43.975Z,10.83
2019-02-28T10:44:12.118Z,10.17
2019-02-28T10:46:40.327Z,9.98
2019-02-28T10:49:08.662Z,10.23
2019-02-28T10:51:37.066Z,10.02
2019-02-28T10:54:05.306Z,10.78
2019-02-28T10:56:33.526Z,10.20
2019-02-28T10:59:01.756Z,10.39
2019-02-28T11:01:30.031Z,9.82
2019-02-28T11:04:00.188Z,10.12
2019-02-28T11:06:28.906Z,10.25
2019-02-28T11:08:59.257Z,9.83
2019-02-28T11:11:27.331Z,10.77
2019-02-28T11:13:55.571Z,10.55
2019-02-28T11:16:24.547Z,10.51
2019-02-28T11:18:52.875Z,10.64
2019-02-28T11:21:21.464Z,11.15
2019-02-28T11:23:50.287Z,10.96
2019-02-28T11:26:18.585Z,10.78
2019-02-28T11:28:46.789Z,11.62
2019-02-28T11:31:16.322Z,11.16
2019-02-28T11:33:45.635Z,10.31
2019-02-28T11:36:13.913Z,11.48
2019-02-28T11:38:42.154Z,11.99
2019-02-28T11:41:10.438Z,11.93
2019-02-28T11:43:38.737Z,11.73
2019-02-28T11:46:09.276Z,11.39
2019-02-28T11:48:37.554Z,11.71
2019-02-28T11:51:05.905Z,12.06
2019-02-28T11:53:39.319Z,11.34
2019-02-28T11:56:04.326Z,11.12
2019-02-28T11:58:32.596Z,11.48
2019-02-28T12:01:02.323Z,10.67
2019-02-28T12:03:31.798Z,11.39
2019-02-28T12:06:00.779Z,11.31
2019-02-28T12:08:29.424Z,11.02
2019-02-28T12:10:58.345Z,12.07
2019-02-28T12:13:27.454Z,12.53
2019-02-28T12:15:55.625Z,11.77
2019-02-28T12:18:23.808Z,11.29
2019-02-28T12:20:52.206Z,12.10
2019-02-28T12:23:23.489Z,12.05
2019-02-28T12:25:50.317Z,11.87
2019-02-28T12:28:18.523Z,11.15
2019-02-28T12:30:46.755Z,11.17
2019-02-28T12:33:15.402Z,11.41
2019-02-28T12:35:44.921Z,11.89
2019-02-28T12:38:13.189Z,12.22
2019-02-28T12:40:49.531Z,12.08
2019-02-28T12:43:18.002Z,12.01
2019-02-28T12:45:47.384Z,11.57
2019-02-28T12:48:15.746Z,12.04
2019-02-28T12:50:44.074Z,12.28
2019-02-28T12:53:12.706Z,12.18
2019-02-28T12:55:40.925Z,12.03
2019-02-28T12:58:09.187Z,12.02
2019-02-28T13:00:38.130Z,12.41
2019-02-28T13:03:06.335Z,13.32
2019-02-28T13:05:35.160Z,12.61
2019-02-28T13:08:05.726Z,12.72
2019-02-28T13:10:33.868Z,13.49
2019-02-28T13:13:06.211Z,13.81
2019-02-28T13:15:31.978Z,12.76
2019-02-28T13:18:00.295Z,13.90
2019-02-28T13:20:33.549Z,13.84
2019-02-28T13:23:01.198Z,13.55
2019-02-28T13:25:29.639Z,13.72
2019-02-28T13:27:58.109Z,13.97
2019-02-28T13:30:26.433Z,13.73
2019-02-28T13:32:54.884Z,13.17
2019-02-28T13:35:25.465Z,13.72
2019-02-28T13:37:53.805Z,13.21
2019-02-28T13:40:22.426Z,14.23
2019-02-28T13:42:50.659Z,14.97
2019-02-28T13:45:23.003Z,14.13
2019-02-28T13:47:49.060Z,14.13
2019-02-28T13:50:25.315Z,14.78
2019-02-28T13:52:53.261Z,14.63
2019-02-28T13:55:21.582Z,15.41
2019-02-28T13:57:49.803Z,14.90
2019-02-28T14:00:28.791Z,14.42
2019-02-28T14:03:08.790Z,14.56
2019-02-28T14:05:40.872Z,13.48
2019-02-28T14:08:09.620Z,13.93
2019-02-28T14:10:35.346Z,13.57
2019-02-28T14:13:03.821Z,13.71
2019-02-28T14:15:37.732Z,13.71
2019-02-28T14:18:07.458Z,13.08
2019-02-28T14:20:36.213Z,13.33
2019-02-28T14:23:04.782Z,14.32
2019-02-28T14:25:33.022Z,13.53
2019-02-28T14:28:01.831Z,12.73
2019-02-28T14:30:30.135Z,13.33
2019-02-28T14:32:58.444Z,14.27
2019-02-28T14:35:26.755Z,13.04
2019-02-28T14:37:56.780Z,13.42
2019-02-28T14:40:25.255Z,13.43
2019-02-28T14:42:53.708Z,12.95
2019-02-28T14:45:22.276Z,13.75
2019-02-28T14:47:57.067Z,13.75
2019-02-28T14:50:22.416Z,13.27
2019-02-28T14:52:51.541Z,13.07
2019-02-28T14:55:19.910Z,13.30
2019-02-28T14:57:48.932Z,12.85
2019-02-28T15:00:20.228Z,13.51
2019-02-28T15:02:50.685Z,13.13
2019-02-28T15:05:20.444Z,13.90
2019-02-28T15:07:49.386Z,13.62
2019-02-28T15:10:19.009Z,13.10
2019-02-28T15:12:47.888Z,12.75
2019-02-28T15:15:19.004Z,13.19
2019-02-28T15:17:47.491Z,13.10
2019-02-28T15:20:16.948Z,12.93
2019-02-28T15:22:45.183Z,14.18
2019-02-28T15:25:15.293Z,13.96
2019-02-28T15:27:44.770Z,13.96
2019-02-28T15:30:15.173Z,13.03
2019-02-28T15:32:42.796Z,12.80
2019-02-28T15:35:15.356Z,13.01
2019-02-28T15:37:43.298Z,12.78
2019-02-28T15:40:16.277Z,13.20
2019-02-28T15:42:44.331Z,13.16
2019-02-28T15:45:13.396Z,13.52
2019-02-28T15:47:42.370Z,13.56
2019-02-28T15:50:13.543Z,12.73
2019-02-28T15:52:42.814Z,13.31
2019-02-28T15:55:12.357Z,12.43
2019-02-28T15:57:40.669Z,13.38
2019-02-28T16:00:15.477Z,12.54
2019-02-28T16:02:43.665Z,13.84
2019-02-28T16:05:11.853Z,13.05
2019-02-28T16:07:40.357Z,13.45
2019-02-28T16:10:10.183Z,13.90
2019-02-28T16:12:38.463Z,12.83
2019-02-28T16:15:08.725Z,13.72
2019-02-28T16:17:37.638Z,14.13
2019-02-28T16:20:06.557Z,14.13
2019-02-28T16:22:35.729Z,14.37
2019-02-28T16:25:04.004Z,14.55
2019-02-28T16:27:33.039Z,14.47
2019-02-28T16:30:05.287Z,12.99
2019-02-28T16:32:33.721Z,12.42
2019-02-28T16:35:04.314Z,12.27
2019-02-28T16:37:35.007Z,12.27
2019-02-28T16:40:02.617Z,12.30
2019-02-28T16:42:30.800Z,11.90
2019-02-28T16:44:59.023Z,11.93
2019-02-28T16:47:27.290Z,11.94
2019-02-28T16:49:55.592Z,12.10
2019-02-28T16:52:24.080Z,12.09
2019-02-28T16:54:56.315Z,12.91
2019-02-28T16:57:24.974Z,12.54
2019-02-28T16:59:53.252Z,12.35
2019-02-28T17:02:21.462Z,12.14
2019-02-28T17:04:51.958Z,11.99
2019-02-28T17:07:19.897Z,12.20
2019-02-28T17:09:48.104Z,12.12
2019-02-28T17:12:27.236Z,12.32
2019-02-28T17:14:54.723Z,11.95
2019-02-28T17:17:47.131Z,12.51
2019-02-28T17:20:15.916Z,12.35
2019-02-28T17:22:44.299Z,11.99
2019-02-28T17:25:14.068Z,11.99
2019-02-28T17:27:51.563Z,12.05
2019-02-28T17:30:32.930Z,12.00
2019-02-28T17:33:02.146Z,11.99
2019-02-28T17:35:33.882Z,11.96
2019-02-28T17:38:00.965Z,11.91
2019-02-28T17:40:29.641Z,11.69
2019-02-28T17:42:57.931Z,11.48
2019-02-28T17:45:32.044Z,11.87
2019-02-28T17:48:32.434Z,11.65
2019-02-28T17:51:22.147Z,12.04
2019-02-28T17:54:30.368Z,11.63
2019-02-28T17:57:26.477Z,11.69
2019-02-28T18:00:29.582Z,11.83
2019-02-28T18:03:36.003Z,11.57
2019-02-28T18:06:29.404Z,11.45
2019-02-28T18:09:22.870Z,11.63
2019-02-28T18:12:56.150Z,10.22
2019-02-28T18:16:17.945Z,11.63
2019-02-28T18:19:43.825Z,11.29
2019-02-28T18:22:35.306Z,11.16
2019-02-28T18:25:40.925Z,11.49
2019-02-28T18:28:37.645Z,10.98
2019-02-28T18:31:11.481Z,11.20
2019-02-28T18:33:45.042Z,10.75
2019-02-28T18:36:15.231Z,11.15
2019-02-28T18:38:44.004Z,10.75
2019-02-28T18:41:12.529Z,10.86
2019-02-28T18:43:41.813Z,10.50
2019-02-28T18:46:11.821Z,10.57
2019-02-28T18:48:41.324Z,10.50
2019-02-28T18:51:10.670Z,10.56
2019-02-28T18:53:39.861Z,11.08
2019-02-28T18:56:08.901Z,10.62
2019-02-28T18:58:37.786Z,10.68
2019-02-28T19:01:07.060Z,10.48
2019-02-28T19:03:35.948Z,10.67
2019-02-28T19:06:04.638Z,10.59
2019-02-28T19:08:33.348Z,10.50
2019-02-28T19:11:02.710Z,10.72
2019-02-28T19:13:31.679Z,10.62
2019-02-28T19:16:00.430Z,10.57
2019-02-28T19:18:29.014Z,10.37
2019-02-28T19:20:58.240Z,10.46
2019-02-28T19:23:28.703Z,10.33
2019-02-28T19:25:56.743Z,10.58
2019-02-28T19:28:26.686Z,10.42
2019-02-28T19:30:55.179Z,10.21
2019-02-28T19:33:23.935Z,10.14
2019-02-28T19:35:52.971Z,10.35
2019-02-28T19:38:21.986Z,10.31
2019-02-28T19:40:50.493Z,10.40
2019-02-28T19:43:19.730Z,10.35
2019-02-28T19:45:48.809Z,10.36
2019-02-28T19:48:17.556Z,10.01
2019-02-28T19:50:47.197Z,10.01
2019-02-28T19:53:16.093Z,9.38
2019-02-28T19:55:45.960Z,9.32
2019-02-28T19:58:15.498Z,9.14
2019-02-28T20:00:44.018Z,9.33
2019-02-28T20:03:13.878Z,9.24
2019-02-28T20:05:48.937Z,10.05
2019-02-28T20:08:18.295Z,9.98
2019-02-28T20:10:47.467Z,10.21
2019-02-28T20:13:18.075Z,9.69
2019-02-28T20:15:46.289Z,9.53
2019-02-28T20:18:15.570Z,10.02
2019-02-28T20:20:44.845Z,9.34
2019-02-28T20:23:14.583Z,9.13
2019-02-28T20:25:43.655Z,8.96
2019-02-28T20:28:12.194Z,9.58
2019-02-28T20:30:41.693Z,9.35
2019-02-28T20:33:13.084Z,9.31
2019-02-28T20:35:42.710Z,9.26
2019-02-28T20:38:13.305Z,9.66
2019-02-28T20:40:44.317Z,9.88
2019-02-28T20:43:14.066Z,10.16
2019-02-28T20:45:44.005Z,9.81
2019-02-28T20:48:13.633Z,9.61
2019-02-28T20:50:43.074Z,10.06
2019-02-28T20:53:12.182Z,10.05
2019-02-28T20:55:41.103Z,10.23
2019-02-28T20:58:10.349Z,10.33
2019-02-28T21:00:40.411Z,10.27
2019-02-28T21:03:09.616Z,10.25
2019-02-28T21:05:39.359Z,10.19
2019-02-28T21:08:08.530Z,10.01
2019-02-28T21:10:37.905Z,10.23
2019-02-28T21:13:07.544Z,10.15
2019-02-28T21:15:37.462Z,10.09
2019-02-28T21:18:06.836Z,10.08
2019-02-28T21:20:35.450Z,10.08
2019-02-28T21:23:03.862Z,10.08
2019-02-28T21:25:32.434Z,10.14
2019-02-28T21:28:00.654Z,10.07
2019-02-28T21:30:28.927Z,10.07
2019-02-28T21:32:58.111Z,10.00
2019-02-28T21:35:27.085Z,9.95
2019-02-28T21:37:55.833Z,9.87
2019-02-28T21:40:25.050Z,9.93
2019-02-28T21:42:54.289Z,9.92
2019-02-28T21:45:22.694Z,9.56
2019-02-28T21:47:51.540Z,9.65
2019-02-28T21:50:21.036Z,9.71
2019-02-28T21:52:49.473Z,9.56
2019-02-28T21:55:18.079Z,9.41
2019-02-28T21:57:46.477Z,8.85
2019-02-28T22:00:24.529Z,8.78
2019-02-28T22:02:52.944Z,8.98
2019-02-28T22:05:21.438Z,8.79
2019-02-28T22:07:49.858Z,8.89
2019-02-28T22:10:18.322Z,8.66
2019-02-28T22:12:46.636Z,8.75
2019-02-28T22:15:16.545Z,8.81
2019-02-28T22:17:44.768Z,8.56
2019-02-28T22:20:16.749Z,8.50
2019-02-28T22:22:45.022Z,8.55
2019-02-28T22:25:13.904Z,8.60
2019-02-28T22:27:42.051Z,8.50
2019-02-28T22:30:35.483Z,8.53
2019-02-28T22:33:05.554Z,8.64
2019-02-28T22:35:37.698Z,8.58
2019-02-28T22:38:05.909Z,8.37
2019-02-28T22:40:34.250Z,8.37
2019-02-28T22:43:02.629Z,8.42
2019-02-28T22:45:30.825Z,8.34
2019-02-28T22:47:59.045Z,8.22
2019-02-28T22:50:27.323Z,8.21
2019-02-28T22:52:56.041Z,8.29
2019-02-28T22:55:28.746Z,8.21
2019-02-28T22:57:56.981Z,8.43
2019-02-28T23:00:59.949Z,8.30
2019-02-28T23:03:29.679Z,8.20
2019-02-28T23:05:58.135Z,8.27
2019-02-28T23:08:26.529Z,8.21
2019-02-28T23:10:55.158Z,8.24
2019-02-28T23:13:23.546Z,8.27
2019-02-28T23:15:51.770Z,8.40
2019-02-28T23:18:20.156Z,8.51
2019-02-28T23:20:48.531Z,8.51
2019-02-28T23:23:16.697Z,8.35
2019-02-28T23:25:44.877Z,8.58
2019-02-28T23:28:16.050Z,8.42
2019-02-28T23:31:09.000Z,8.42
2019-02-28T23:33:37.236Z,8.67
2019-02-28T23:36:05.540Z,8.58
2019-02-28T23:38:34.100Z,8.79
2019-02-28T23:41:02.279Z,8.53
2019-02-28T23:43:30.550Z,8.39
2019-02-28T23:45:58.806Z,8.58
2019-02-28T23:48:27.033Z,8.52
2019-02-28T23:50:55.580Z,8.57
2019-02-28T23:53:23.927Z,8.38
2019-02-28T23:55:52.293Z,8.46
2019-02-28T23:58:20.775Z,8.50
